Time;durP1;ratioP1;P1;durP2;ratioP2;P2;SDS_P1;SDS_P2;PMS_P1;PMS_P2;Temp;Humidity;BMP_temperature;BMP_pressure;BME280_temperature;BME280_humidity;BME280_pressure;Samples;Min_cycle;Max_cycle;Signal;HPM_P1;HPM_P2
2021/06/03 02:02:48;;;;;;;5.78;5.07;;;12.20;83.20;;;;;;5066311;28;20209;-92
2021/06/03 02:05:17;;;;;;;6.57;4.70;;;12.10;83.50;;;;;;5068344;28;20285;-89
2021/06/03 02:07:43;;;;;;;5.90;4.78;;;12.10;84.30;;;;;;5069037;28;20194;-90
2021/06/03 02:10:11;;;;;;;6.35;4.70;;;12.00;85.50;;;;;;5051122;28;20664;-88
2021/06/03 02:12:44;;;;;;;5.38;4.88;;;11.90;85.40;;;;;;5068971;28;20218;-90
2021/06/03 02:15:11;;;;;;;5.63;4.80;;;11.90;85.00;;;;;;5068674;28;20293;-89
2021/06/03 02:17:42;;;;;;;7.22;4.63;;;11.90;86.60;;;;;;5068622;28;20224;-89
2021/06/03 02:20:13;;;;;;;6.40;4.30;;;12.00;85.70;;;;;;5068730;28;20316;-89
2021/06/03 02:22:43;;;;;;;5.97;4.38;;;12.00;85.40;;;;;;5057090;28;20289;-89
2021/06/03 02:25:10;;;;;;;7.63;4.50;;;12.00;84.80;;;;;;5069057;28;20670;-90
2021/06/03 02:28:02;;;;;;;5.80;4.57;;;12.00;84.80;;;;;;5069699;28;20200;-88
2021/06/03 02:30:48;;;;;;;5.13;4.05;;;11.90;85.70;;;;;;5067802;28;20285;-89
2021/06/03 02:33:14;;;;;;;7.28;4.85;;;11.80;86.00;;;;;;5068934;28;20208;-88
2021/06/03 02:35:41;;;;;;;4.93;4.22;;;11.70;85.50;;;;;;5068534;28;20267;-89
2021/06/03 02:38:09;;;;;;;4.72;4.18;;;11.60;85.90;;;;;;5068743;28;20632;-88
2021/06/03 02:40:35;;;;;;;6.78;4.70;;;11.60;86.60;;;;;;5068399;28;20294;-89
2021/06/03 02:43:02;;;;;;;5.55;4.40;;;11.60;88.10;;;;;;5054493;28;20269;-89
2021/06/03 02:45:30;;;;;;;5.18;4.38;;;11.70;87.80;;;;;;5064708;28;20238;-89
2021/06/03 02:47:58;;;;;;;6.78;4.80;;;11.70;87.40;;;;;;5063985;28;20281;-89
2021/06/03 02:50:28;;;;;;;5.78;4.55;;;11.70;86.60;;;;;;5069003;28;20206;-89
2021/06/03 03:06:09;;;;;;;6.90;4.47;;;11.30;89.60;;;;;;5136301;22;20233;-90
2021/06/03 03:08:36;;;;;;;5.07;4.57;;;11.20;89.60;;;;;;5029909;28;20271;-89
2021/06/03 03:11:03;;;;;;;7.43;4.35;;;11.30;89.40;;;;;;5044091;28;20260;-89
2021/06/03 03:13:29;;;;;;;8.18;4.40;;;11.30;90.10;;;;;;5045125;28;20183;-89
2021/06/03 03:15:56;;;;;;;4.80;4.30;;;11.30;90.00;;;;;;5046667;28;20206;-89
2021/06/03 03:18:24;;;;;;;4.65;4.25;;;11.30;90.20;;;;;;5050271;28;20244;-89
2021/06/03 03:20:51;;;;;;;5.00;4.47;;;11.30;90.10;;;;;;5052007;28;20230;-88
2021/06/03 03:23:19;;;;;;;5.80;4.43;;;11.30;90.00;;;;;;5053039;28;20201;-88
2021/06/03 03:25:45;;;;;;;7.22;4.45;;;11.30;90.00;;;;;;5051826;28;20242;-88
2021/06/03 03:28:12;;;;;;;4.88;4.38;;;11.30;90.00;;;;;;5053093;28;20270;-88
2021/06/03 03:30:43;;;;;;;4.53;4.07;;;11.30;90.30;;;;;;5052926;28;20209;-89
2021/06/03 03:33:10;;;;;;;6.25;4.47;;;11.30;90.20;;;;;;5053516;28;20689;-89
2021/06/03 03:35:37;;;;;;;4.93;3.97;;;11.30;90.40;;;;;;5052300;28;20274;-88
2021/06/03 03:38:04;;;;;;;4.78;4.28;;;11.30;90.30;;;;;;5051385;28;20221;-89
2021/06/03 03:40:32;;;;;;;4.93;4.40;;;11.30;90.20;;;;;;5032980;28;20231;-88
2021/06/03 03:42:59;;;;;;;4.78;4.05;;;11.30;90.20;;;;;;5032745;28;20675;-88
2021/06/03 03:45:27;;;;;;;4.57;4.15;;;11.30;90.00;;;;;;5051227;28;20232;-88
2021/06/03 03:47:54;;;;;;;4.95;4.10;;;11.30;90.00;;;;;;5051795;28;20272;-88
2021/06/03 03:50:22;;;;;;;5.75;4.03;;;11.40;90.00;;;;;;5046348;28;20231;-89
2021/06/03 03:52:49;;;;;;;4.53;4.03;;;11.40;89.70;;;;;;5042232;28;20297;-89
2021/06/03 03:55:17;;;;;;;4.60;4.10;;;11.40;89.30;;;;;;5050743;28;20290;-88
2021/06/03 03:57:46;;;;;;;5.20;3.90;;;11.60;90.00;;;;;;5050867;28;20705;-89
2021/06/03 04:00:16;;;;;;;6.72;4.20;;;11.70;88.50;;;;;;5030631;28;20243;-88
2021/06/03 04:02:42;;;;;;;4.50;4.10;;;11.70;88.00;;;;;;5039285;28;20198;-88
2021/06/03 04:05:09;;;;;;;4.15;3.72;;;11.80;87.50;;;;;;5051048;28;20226;-90
2021/06/03 04:07:38;;;;;;;4.80;3.88;;;11.90;86.70;;;;;;5037590;28;20236;-89
2021/06/03 04:10:07;;;;;;;4.82;4.03;;;12.00;86.50;;;;;;5038261;28;20294;-89
2021/06/03 04:12:34;;;;;;;4.45;4.05;;;12.00;86.30;;;;;;5031115;28;20290;-89
2021/06/03 04:15:02;;;;;;;4.07;3.65;;;12.10;86.30;;;;;;5040992;28;20227;-88
2021/06/03 04:17:28;;;;;;;4.88;3.45;;;12.20;86.70;;;;;;5034014;28;20262;-88
2021/06/03 04:19:55;;;;;;;6.68;3.97;;;12.20;86.40;;;;;;5030219;28;20231;-89
2021/06/03 04:22:21;;;;;;;4.28;3.88;;;12.30;86.20;;;;;;5029491;28;20278;-88
2021/06/03 04:24:48;;;;;;;5.05;3.72;;;12.30;86.00;;;;;;5051658;28;20198;-88
2021/06/03 04:27:15;;;;;;;4.60;3.83;;;12.40;86.20;;;;;;5051445;28;20212;-88
2021/06/03 04:29:42;;;;;;;4.22;3.80;;;12.40;87.10;;;;;;5051356;28;20230;-88
2021/06/03 04:32:13;;;;;;;4.40;4.00;;;12.30;85.80;;;;;;5051024;28;20265;-89
2021/06/03 04:34:40;;;;;;;5.82;4.10;;;12.40;87.10;;;;;;5037553;28;20203;-88
2021/06/03 04:37:08;;;;;;;4.93;3.72;;;12.50;86.60;;;;;;5035157;28;20190;-88
2021/06/03 04:39:34;;;;;;;6.55;3.75;;;12.60;86.60;;;;;;5051667;28;20702;-90
2021/06/03 04:42:00;;;;;;;4.63;4.20;;;12.70;86.40;;;;;;5052276;28;20222;-88
2021/06/03 05:07:46;;;;;;;5.18;3.33;;;13.80;82.50;;;;;;5522540;22;20238;-89
2021/06/03 05:10:13;;;;;;;3.90;3.50;;;14.10;82.20;;;;;;5048078;28;20223;-88
2021/06/03 05:12:40;;;;;;;6.38;3.67;;;14.40;81.10;;;;;;5033206;28;20228;-89
2021/06/03 05:15:08;;;;;;;4.47;3.60;;;14.70;80.20;;;;;;5034912;28;20328;-90
2021/06/03 05:17:35;;;;;;;4.53;3.70;;;14.90;79.30;;;;;;5031370;28;20206;-89
2021/06/03 05:20:03;;;;;;;5.05;3.97;;;15.00;78.60;;;;;;5029871;28;20234;-89
2021/06/03 05:22:29;;;;;;;4.70;3.60;;;15.10;77.40;;;;;;5027082;28;20195;-91
2021/06/03 05:24:57;;;;;;;3.38;3.08;;;15.10;77.40;;;;;;5029010;28;20226;-92
2021/06/03 05:27:23;;;;;;;4.10;3.60;;;15.20;77.40;;;;;;5028127;28;20203;-90
2021/06/03 05:29:50;;;;;;;4.82;3.45;;;15.20;77.40;;;;;;5024277;28;20228;-91
2021/06/03 05:32:16;;;;;;;4.13;3.72;;;15.10;77.40;;;;;;5033937;28;20217;-91
2021/06/03 05:34:42;;;;;;;3.90;3.50;;;15.20;77.40;;;;;;5032459;28;20679;-90
2021/06/03 05:37:09;;;;;;;4.05;3.13;;;15.30;77.50;;;;;;5034564;28;20191;-89
2021/06/03 05:39:35;;;;;;;4.10;3.30;;;15.40;77.60;;;;;;5034563;28;20230;-89
2021/06/03 05:42:04;;;;;;;5.53;3.30;;;15.50;77.70;;;;;;5032908;28;20286;-89
2021/06/03 05:44:31;;;;;;;5.53;3.40;;;15.50;77.70;;;;;;5016071;28;20227;-89
2021/06/03 05:46:57;;;;;;;4.32;3.42;;;15.50;77.70;;;;;;5030679;28;20238;-90
2021/06/03 05:49:26;;;;;;;4.00;3.60;;;15.80;77.80;;;;;;5031873;28;20226;-89
2021/06/03 05:51:53;;;;;;;4.50;3.17;;;16.40;77.10;;;;;;5025358;28;20207;-89
2021/06/03 05:54:19;;;;;;;4.25;3.30;;;16.70;74.10;;;;;;5021576;28;20284;-89
2021/06/03 05:56:46;;;;;;;4.07;3.30;;;16.80;70.70;;;;;;5019511;28;20203;-90
2021/06/03 05:59:14;;;;;;;3.55;3.20;;;16.80;72.60;;;;;;5019436;28;20237;-89
2021/06/03 06:01:40;;;;;;;3.88;3.53;;;16.80;70.20;;;;;;5023448;28;20200;-89
2021/06/03 06:06:50;;;;;;;3.90;3.50;;;16.70;71.30;;;;;;4998405;28;20667;-90
2021/06/03 06:09:16;;;;;;;4.70;3.17;;;16.80;71.00;;;;;;5019935;28;20705;-89
2021/06/03 06:11:44;;;;;;;4.45;3.35;;;16.90;70.70;;;;;;5019301;28;20199;-90
2021/06/03 06:14:11;;;;;;;4.20;3.40;;;16.90;71.30;;;;;;5009213;28;20219;-90
2021/06/03 06:16:40;;;;;;;3.40;3.10;;;17.10;70.60;;;;;;5018839;28;20222;-92
2021/06/03 06:19:08;;;;;;;3.65;3.35;;;17.20;69.80;;;;;;5023008;28;20234;-90
2021/06/03 06:21:35;;;;;;;3.00;2.60;;;17.50;69.00;;;;;;5025661;28;20221;-89
2021/06/03 06:24:07;;;;;;;3.55;2.78;;;17.80;67.60;;;;;;5026186;28;20251;-89
2021/06/03 06:26:37;;;;;;;3.38;2.88;;;18.20;65.50;;;;;;5024425;28;20290;-89
2021/06/03 06:29:03;;;;;;;3.20;2.90;;;18.50;63.00;;;;;;5022552;28;20230;-89
2021/06/03 06:31:30;;;;;;;3.15;2.60;;;18.60;61.90;;;;;;5030194;28;20203;-87
2021/06/03 06:33:58;;;;;;;5.80;2.97;;;18.80;61.40;;;;;;5029179;28;20649;-88
2021/06/03 06:36:25;;;;;;;5.20;2.75;;;18.80;60.40;;;;;;5028638;28;20202;-88
2021/06/03 06:38:52;;;;;;;3.67;3.10;;;18.90;60.10;;;;;;5027190;28;20241;-87
2021/06/03 06:41:18;;;;;;;4.50;2.83;;;19.00;60.30;;;;;;5026425;28;20207;-87
2021/06/03 06:43:45;;;;;;;3.55;3.25;;;19.10;60.40;;;;;;5030239;28;20214;-89
2021/06/03 06:46:11;;;;;;;3.45;2.70;;;19.10;59.50;;;;;;5026705;28;20206;-90
2021/06/03 06:48:38;;;;;;;3.38;3.08;;;19.10;59.00;;;;;;5027650;28;20207;-88
2021/06/03 06:51:06;;;;;;;3.08;2.78;;;19.10;59.00;;;;;;5030241;28;20207;-89
2021/06/03 06:53:32;;;;;;;4.88;3.13;;;19.20;61.30;;;;;;5029114;28;20223;-88
2021/06/03 06:55:58;;;;;;;4.65;3.10;;;19.30;60.60;;;;;;5020845;28;20211;-88
2021/06/03 06:58:25;;;;;;;3.00;2.70;;;19.40;60.40;;;;;;5028656;28;20199;-88
2021/06/03 07:00:51;;;;;;;4.88;3.00;;;19.50;59.80;;;;;;5028075;28;20555;-88
2021/06/03 07:03:18;;;;;;;3.05;2.80;;;19.50;58.90;;;;;;5027864;28;20583;-87
2021/06/03 07:05:46;;;;;;;3.00;2.60;;;19.50;55.60;;;;;;5026656;28;20309;-88
2021/06/03 07:08:14;;;;;;;3.40;3.10;;;19.70;55.60;;;;;;5027379;28;20647;-87
2021/06/03 07:10:40;;;;;;;3.95;3.08;;;19.70;55.60;;;;;;5021534;28;20253;-89
2021/06/03 07:13:07;;;;;;;3.88;3.00;;;19.80;57.50;;;;;;5038663;28;20211;-89
2021/06/03 07:15:33;;;;;;;3.25;2.85;;;20.00;55.90;;;;;;5026877;28;20242;-89
2021/06/03 07:18:00;;;;;;;2.90;2.70;;;20.70;53.70;;;;;;5014829;28;20536;-89
2021/06/03 07:20:26;;;;;;;4.30;3.03;;;21.70;49.10;;;;;;5011536;28;20631;-89
2021/06/03 07:22:54;;;;;;;3.60;2.85;;;22.60;44.60;;;;;;5017059;28;20734;-90
2021/06/03 07:25:24;;;;;;;3.40;3.10;;;23.20;42.10;;;;;;5016667;28;20284;-87
2021/06/03 07:27:52;;;;;;;3.20;3.00;;;22.90;40.90;;;;;;5018225;28;20215;-89
2021/06/03 07:30:20;;;;;;;3.42;2.70;;;22.80;43.90;;;;;;5018517;28;20235;-88
2021/06/03 07:32:47;;;;;;;3.33;2.75;;;22.60;43.70;;;;;;5016039;28;20195;-90
2021/06/03 07:35:15;;;;;;;3.30;3.00;;;22.50;43.20;;;;;;5020482;28;20718;-89
2021/06/03 07:37:42;;;;;;;3.22;2.60;;;22.60;43.60;;;;;;5013926;28;20204;-90
2021/06/03 07:40:11;;;;;;;3.42;2.80;;;22.50;43.80;;;;;;5018843;28;20233;-89
2021/06/03 07:42:48;;;;;;;5.53;3.13;;;22.20;44.70;;;;;;5014024;28;20424;-88
2021/06/03 07:45:22;;;;;;;3.67;3.00;;;22.00;45.60;;;;;;5019599;28;20244;-89
2021/06/03 07:47:49;;;;;;;3.75;3.35;;;21.90;45.80;;;;;;5019745;28;20198;-89
2021/06/03 07:50:16;;;;;;;5.93;3.17;;;21.80;47.60;;;;;;5020808;28;20222;-89
2021/06/03 07:52:42;;;;;;;3.28;2.97;;;21.70;45.00;;;;;;5018797;28;20195;-89
2021/06/03 07:55:11;;;;;;;5.60;3.40;;;21.70;48.60;;;;;;5017992;28;20227;-89
2021/06/03 07:57:40;;;;;;;4.32;3.03;;;21.80;45.50;;;;;;5017920;28;20203;-91
2021/06/03 08:00:09;;;;;;;5.60;2.83;;;21.80;45.20;;;;;;5016880;28;20235;-89
2021/06/03 08:02:36;;;;;;;4.05;3.08;;;21.70;44.90;;;;;;5016975;28;20268;-89
2021/06/03 08:05:03;;;;;;;6.05;3.25;;;21.70;44.60;;;;;;5019963;28;20238;-90
2021/06/03 08:07:30;;;;;;;3.72;3.20;;;21.80;45.20;;;;;;5016326;28;20208;-88
2021/06/03 08:09:58;;;;;;;3.45;3.15;;;22.00;45.60;;;;;;5019020;28;20223;-88
2021/06/03 08:12:26;;;;;;;4.03;3.25;;;22.10;45.40;;;;;;5018033;28;20195;-89
2021/06/03 08:14:54;;;;;;;4.20;2.70;;;22.30;43.00;;;;;;5018432;28;20235;-89
2021/06/03 08:17:24;;;;;;;5.40;3.20;;;22.60;41.60;;;;;;5023302;28;20225;-87
2021/06/03 08:19:50;;;;;;;8.45;3.42;;;23.30;40.50;;;;;;5019898;28;20231;-84
2021/06/03 08:22:16;;;;;;;4.53;3.30;;;24.70;36.00;;;;;;5011999;28;20199;-87
2021/06/03 08:24:48;;;;;;;3.95;3.40;;;25.90;33.50;;;;;;5013829;28;20998;-87
2021/06/03 08:27:14;;;;;;;4.68;3.30;;;28.00;28.40;;;;;;5014420;28;20231;-85
2021/06/03 08:29:48;;;;;;;3.53;3.13;;;29.60;25.10;;;;;;4993038;28;20229;-89
2021/06/03 08:32:16;;;;;;;5.78;3.25;;;29.90;23.40;;;;;;5009861;28;20619;-88
2021/06/03 08:34:42;;;;;;;3.17;2.92;;;29.90;23.30;;;;;;5011935;28;20219;-87
2021/06/03 08:37:12;;;;;;;3.88;3.58;;;31.20;21.50;;;;;;5019450;28;20260;-89
2021/06/03 08:39:52;;;;;;;3.75;3.33;;;31.50;19.80;;;;;;5017367;28;20254;-90
2021/06/03 08:42:19;;;;;;;3.70;3.40;;;33.10;18.10;;;;;;5015104;28;20596;-91
2021/06/03 08:44:46;;;;;;;4.50;4.10;;;35.10;18.40;;;;;;5013468;28;20229;-89
2021/06/03 08:47:13;;;;;;;3.80;3.50;;;34.90;15.40;;;;;;5013943;28;20203;-89
2021/06/03 08:49:40;;;;;;;4.28;3.95;;;35.20;15.50;;;;;;5003009;28;20226;-90
2021/06/03 08:52:07;;;;;;;3.95;3.60;;;32.60;17.90;;;;;;5013992;28;20191;-89
2021/06/03 08:54:35;;;;;;;4.82;3.70;;;34.10;17.80;;;;;;5005315;28;20229;-90
2021/06/03 08:57:06;;;;;;;5.03;4.10;;;33.90;17.60;;;;;;5013595;28;20294;-88
2021/06/03 08:59:33;;;;;;;4.97;4.15;;;35.00;16.50;;;;;;5011432;28;20230;-89
2021/06/03 09:01:59;;;;;;;4.85;4.20;;;35.90;15.60;;;;;;5019173;28;20214;-89
2021/06/03 09:04:25;;;;;;;5.40;3.95;;;36.20;14.90;;;;;;5019985;28;20309;-91
2021/06/03 09:06:54;;;;;;;4.43;4.13;;;36.60;14.80;;;;;;5022051;28;20214;-89
2021/06/03 09:09:25;;;;;;;6.53;4.60;;;37.30;14.30;;;;;;5000872;28;20238;-89
2021/06/03 09:12:10;;;;;;;4.88;4.45;;;37.50;12.80;;;;;;5030384;28;20206;-89
2021/06/03 09:14:36;;;;;;;4.60;4.20;;;36.30;13.40;;;;;;5008432;28;20629;-90
2021/06/03 09:17:03;;;;;;;5.45;4.15;;;36.20;14.90;;;;;;5006000;28;20199;-89
2021/06/03 09:19:29;;;;;;;4.55;4.18;;;36.70;14.60;;;;;;5015352;28;20222;-90
2021/06/03 09:21:59;;;;;;;5.75;5.15;;;37.10;13.30;;;;;;5014911;28;20619;-90
2021/06/03 09:24:39;;;;;;;5.45;5.05;;;38.20;12.60;;;;;;5027896;28;20234;-91
2021/06/03 09:27:06;;;;;;;4.93;4.57;;;37.60;13.10;;;;;;5011287;28;20640;-89
2021/06/03 09:29:33;;;;;;;5.50;5.00;;;37.30;13.60;;;;;;5000661;28;20277;-89
2021/06/03 09:32:07;;;;;;;5.15;4.80;;;38.30;12.20;;;;;;5012862;28;20716;-90
2021/06/03 09:34:35;;;;;;;5.38;4.90;;;38.60;11.20;;;;;;5000187;28;20222;-90
2021/06/03 09:37:05;;;;;;;5.70;5.30;;;38.10;12.70;;;;;;5002649;28;20211;-90
2021/06/03 09:39:34;;;;;;;5.82;5.38;;;37.60;12.10;;;;;;4994182;28;20699;-90
2021/06/03 09:42:04;;;;;;;5.55;5.07;;;37.60;13.30;;;;;;5005239;28;20203;-89
2021/06/03 09:44:32;;;;;;;5.85;5.13;;;37.40;12.20;;;;;;5014028;28;20253;-89
2021/06/03 09:47:04;;;;;;;6.93;6.03;;;36.80;12.80;;;;;;5013570;28;20203;-89
2021/06/03 09:49:32;;;;;;;6.10;5.60;;;36.10;12.70;;;;;;5012698;28;20258;-89
2021/06/03 09:52:01;;;;;;;6.32;5.70;;;35.10;15.30;;;;;;5009642;28;20716;-90
2021/06/03 09:54:30;;;;;;;6.10;5.60;;;35.20;16.70;;;;;;5003784;28;20250;-90
2021/06/03 09:57:00;;;;;;;18.35;17.00;;;36.40;14.40;;;;;;5004520;28;20218;-90
2021/06/03 09:59:29;;;;;;;29.98;27.80;;;37.90;12.80;;;;;;5013119;28;20238;-90
2021/06/03 10:02:01;;;;;;;6.05;5.65;;;38.80;11.40;;;;;;5019318;28;20650;-91
2021/06/03 10:04:34;;;;;;;5.80;5.50;;;38.70;11.30;;;;;;5027767;28;20223;-90
2021/06/03 10:07:19;;;;;;;6.50;6.00;;;38.50;13.10;;;;;;5018265;28;20204;-90
2021/06/03 10:09:53;;;;;;;6.88;6.40;;;37.80;13.70;;;;;;5016342;28;20320;-88
2021/06/03 10:12:35;;;;;;;6.88;6.38;;;37.40;13.90;;;;;;5013122;28;20549;-89
2021/06/03 10:15:07;;;;;;;7.30;6.75;;;38.30;12.20;;;;;;5001725;28;20525;-88
2021/06/03 10:17:36;;;;;;;6.80;6.18;;;37.80;11.90;;;;;;5003861;28;20212;-88
2021/06/03 10:20:07;;;;;;;6.43;5.90;;;36.90;11.30;;;;;;5011933;28;20232;-89
2021/06/03 10:22:35;;;;;;;6.40;5.80;;;35.80;12.70;;;;;;5012893;28;20207;-88
2021/06/03 10:25:07;;;;;;;5.80;5.30;;;36.10;14.30;;;;;;5013065;28;20245;-86
2021/06/03 10:27:39;;;;;;;5.57;5.18;;;35.80;14.10;;;;;;5013951;28;20366;-89
2021/06/03 10:30:10;;;;;;;4.50;4.20;;;35.10;13.80;;;;;;5018093;28;20230;-85
2021/06/03 10:32:41;;;;;;;4.90;4.60;;;34.70;14.60;;;;;;5019671;28;20202;-88
2021/06/03 10:35:10;;;;;;;5.47;4.97;;;35.60;15.60;;;;;;5007189;28;20219;-86
2021/06/03 10:37:38;;;;;;;5.18;4.82;;;35.50;13.80;;;;;;5020307;28;20236;-87
2021/06/03 10:40:10;;;;;;;7.68;4.70;;;34.60;14.20;;;;;;5016449;28;20249;-86
2021/06/03 10:42:36;;;;;;;4.40;4.00;;;33.80;14.10;;;;;;5009832;28;20238;-87
2021/06/03 10:45:06;;;;;;;4.35;3.92;;;34.60;15.90;;;;;;5017347;28;20245;-86
2021/06/03 10:47:32;;;;;;;4.80;4.30;;;34.10;17.40;;;;;;5016450;28;20639;-86
2021/06/03 10:50:00;;;;;;;4.28;3.97;;;34.50;15.80;;;;;;5014799;28;20975;-86
2021/06/03 10:52:28;;;;;;;9.00;4.22;;;34.70;16.50;;;;;;5016774;28;20645;-87
2021/06/03 10:54:55;;;;;;;4.82;4.43;;;34.70;15.20;;;;;;5015006;28;20240;-87
2021/06/03 10:57:50;;;;;;;4.70;4.10;;;34.70;16.10;;;;;;5014657;28;20290;-87
2021/06/03 11:00:31;;;;;;;3.95;3.65;;;34.10;15.00;;;;;;5014706;28;20765;-87
2021/06/03 11:02:59;;;;;;;4.20;3.88;;;32.90;16.40;;;;;;5012367;28;20207;-88
2021/06/03 11:05:28;;;;;;;13.07;11.85;;;31.60;19.00;;;;;;5006963;28;20238;-88
2021/06/03 11:07:55;;;;;;;4.40;4.00;;;31.10;20.10;;;;;;5001736;28;20219;-87
2021/06/03 11:10:31;;;;;;;7.13;4.47;;;30.60;20.60;;;;;;5019238;28;20230;-86
2021/06/03 11:13:16;;;;;;;4.65;4.03;;;30.20;21.70;;;;;;5015591;28;20645;-86
2021/06/03 11:16:07;;;;;;;4.22;3.83;;;29.70;22.10;;;;;;5016322;28;20233;-90
2021/06/03 11:18:58;;;;;;;4.55;3.58;;;29.80;24.10;;;;;;5012646;28;20313;-87
2021/06/03 11:21:56;;;;;;;4.40;4.00;;;29.50;22.40;;;;;;5012634;28;20203;-87
2021/06/03 11:24:41;;;;;;;4.57;4.13;;;28.60;23.80;;;;;;5016963;28;20245;-88
2021/06/03 11:27:08;;;;;;;4.20;3.60;;;27.40;26.60;;;;;;5023060;28;20202;-86
2021/06/03 11:29:40;;;;;;;5.05;3.90;;;27.00;27.70;;;;;;5022034;28;20288;-89
2021/06/03 11:32:18;;;;;;;8.50;3.30;;;26.80;29.70;;;;;;5009348;28;20623;-86
2021/06/03 11:34:46;;;;;;;4.45;4.05;;;26.50;30.00;;;;;;5019395;28;20522;-84
2021/06/03 11:37:14;;;;;;;5.95;3.90;;;26.10;31.60;;;;;;5022124;28;20713;-85
2021/06/03 11:39:50;;;;;;;3.65;3.25;;;26.30;31.90;;;;;;5013859;28;20237;-84
2021/06/03 11:42:32;;;;;;;4.20;3.85;;;27.10;31.60;;;;;;5014843;28;20660;-84
2021/06/03 11:45:29;;;;;;;3.63;3.33;;;27.50;26.40;;;;;;5012330;28;20306;-86
2021/06/03 11:48:07;;;;;;;7.28;3.75;;;28.10;25.00;;;;;;5014674;28;20928;-86
2021/06/03 11:50:39;;;;;;;3.70;3.40;;;28.10;24.20;;;;;;5017972;28;20222;-87
2021/06/03 11:53:19;;;;;;;4.13;3.72;;;28.30;23.50;;;;;;5010918;28;20204;-85
2021/06/03 11:55:48;;;;;;;5.03;4.53;;;28.70;23.10;;;;;;5021017;28;20228;-87
2021/06/03 11:58:18;;;;;;;4.18;3.85;;;28.90;25.80;;;;;;5022251;28;20206;-87
2021/06/03 12:00:48;;;;;;;7.28;4.53;;;28.70;25.50;;;;;;5023279;28;20222;-86
2021/06/03 12:03:27;;;;;;;5.45;3.90;;;28.30;26.10;;;;;;5020494;28;20655;-88
2021/06/03 12:05:55;;;;;;;6.65;4.40;;;28.10;27.50;;;;;;5000826;28;20226;-89
2021/06/03 12:08:33;;;;;;;4.03;3.63;;;27.80;27.70;;;;;;5015134;28;20588;-86
2021/06/03 12:11:00;;;;;;;8.32;3.80;;;27.90;27.30;;;;;;5019617;28;20937;-85
2021/06/03 12:13:27;;;;;;;11.88;3.63;;;28.10;28.00;;;;;;5016745;28;20211;-85
2021/06/03 12:15:55;;;;;;;4.22;3.58;;;28.30;28.80;;;;;;5022709;28;20227;-87
2021/06/03 12:18:21;;;;;;;6.72;3.70;;;28.40;26.50;;;;;;5027225;28;20590;-87
2021/06/03 12:20:47;;;;;;;4.45;3.60;;;28.20;25.70;;;;;;5030290;28;20636;-86
2021/06/03 12:23:14;;;;;;;4.53;3.55;;;28.20;24.90;;;;;;5019670;28;20204;-86
2021/06/03 12:25:42;;;;;;;6.15;3.70;;;28.20;24.90;;;;;;5025413;28;20231;-86
2021/06/03 12:28:11;;;;;;;5.60;3.55;;;28.30;24.50;;;;;;5024655;28;20201;-86
2021/06/03 12:30:39;;;;;;;3.83;3.53;;;28.60;25.10;;;;;;5035123;28;20232;-84
2021/06/03 12:33:09;;;;;;;4.75;3.47;;;27.30;26.90;;;;;;5028976;28;20191;-87
2021/06/03 12:35:38;;;;;;;3.75;3.30;;;27.30;28.40;;;;;;5023410;28;20534;-86
2021/06/03 12:38:06;;;;;;;6.53;3.53;;;27.40;26.00;;;;;;5018271;28;20705;-85
2021/06/03 12:40:33;;;;;;;3.90;3.30;;;26.70;26.70;;;;;;5012434;28;20231;-85
2021/06/03 12:43:05;;;;;;;3.75;3.42;;;27.00;26.90;;;;;;5022496;28;20526;-88
2021/06/03 12:45:32;;;;;;;4.88;3.70;;;27.50;26.00;;;;;;5015360;28;20644;-85
2021/06/03 12:47:59;;;;;;;3.70;3.38;;;27.50;25.90;;;;;;5014267;28;20290;-84
2021/06/03 12:50:27;;;;;;;3.60;3.30;;;27.70;24.80;;;;;;5018040;28;20230;-86
2021/06/03 12:52:54;;;;;;;4.05;3.65;;;27.80;24.10;;;;;;5018411;28;20256;-85
2021/06/03 12:55:23;;;;;;;5.28;4.15;;;27.90;23.40;;;;;;5017718;28;20227;-85
2021/06/03 12:57:50;;;;;;;6.15;4.10;;;27.80;24.20;;;;;;5021121;28;20204;-86
2021/06/03 13:00:20;;;;;;;5.82;3.33;;;27.80;24.90;;;;;;5021477;28;20250;-88
2021/06/03 13:02:48;;;;;;;3.70;3.28;;;27.80;23.80;;;;;;5021595;28;20207;-86
2021/06/03 13:05:17;;;;;;;3.80;3.40;;;27.80;24.50;;;;;;5012176;28;20247;-87
2021/06/03 13:07:46;;;;;;;3.88;3.50;;;27.80;24.40;;;;;;5026312;28;20210;-86
2021/06/03 13:10:16;;;;;;;7.15;3.20;;;27.90;24.00;;;;;;5013993;28;20714;-85
2021/06/03 13:12:49;;;;;;;3.78;3.22;;;27.80;23.80;;;;;;5021509;28;20205;-86
2021/06/03 13:15:16;;;;;;;4.93;3.17;;;27.70;24.30;;;;;;5019045;28;20249;-88
2021/06/03 13:17:45;;;;;;;3.42;3.10;;;27.80;26.20;;;;;;5028839;28;20660;-87
2021/06/03 13:20:15;;;;;;;4.97;3.45;;;27.60;25.10;;;;;;5018355;28;20226;-85
2021/06/03 13:22:49;;;;;;;3.35;3.10;;;27.30;25.80;;;;;;5015171;28;20224;-86
2021/06/03 13:25:15;;;;;;;5.80;3.08;;;27.50;24.60;;;;;;5015537;28;20226;-85
2021/06/03 13:27:45;;;;;;;3.50;3.20;;;27.30;25.00;;;;;;5004810;28;20267;-85
2021/06/03 13:30:15;;;;;;;3.47;3.20;;;26.90;24.80;;;;;;5014578;28;20227;-84
2021/06/03 13:32:42;;;;;;;3.53;3.22;;;26.40;24.80;;;;;;5009453;28;20246;-86
2021/06/03 13:35:11;;;;;;;6.10;5.07;;;26.00;25.30;;;;;;5021726;28;20638;-86
2021/06/03 13:37:40;;;;;;;19.83;12.20;;;25.70;27.70;;;;;;5026008;28;20203;-86
2021/06/03 13:40:15;;;;;;;3.90;3.20;;;25.30;26.90;;;;;;5025444;28;20238;-85
2021/06/03 13:42:44;;;;;;;4.82;3.10;;;25.00;29.10;;;;;;5015491;28;20588;-89
2021/06/03 13:45:15;;;;;;;5.72;4.70;;;24.80;29.00;;;;;;5010227;28;20567;-91
2021/06/03 13:47:50;;;;;;;3.38;2.97;;;24.70;28.70;;;;;;5011972;28;20698;-88
2021/06/03 13:50:36;;;;;;;5.60;3.22;;;24.60;28.20;;;;;;5015365;28;20249;-88
2021/06/03 13:53:07;;;;;;;3.85;3.00;;;24.60;28.10;;;;;;5008825;28;20589;-87
2021/06/03 13:55:46;;;;;;;4.38;2.70;;;24.70;27.20;;;;;;5014530;28;20227;-89
2021/06/03 13:58:13;;;;;;;4.72;3.05;;;25.00;26.60;;;;;;5006525;28;20639;-89
2021/06/03 14:00:41;;;;;;;3.30;2.78;;;25.20;27.00;;;;;;5015249;28;20219;-91
2021/06/03 14:03:11;;;;;;;3.70;2.58;;;25.40;27.40;;;;;;5012093;28;20622;-89
2021/06/03 14:05:39;;;;;;;2.65;2.45;;;25.80;25.20;;;;;;5011254;28;20235;-88
2021/06/03 14:08:11;;;;;;;3.33;2.80;;;26.00;24.00;;;;;;5013280;28;20258;-87
2021/06/03 14:11:10;;;;;;;4.10;2.70;;;26.00;24.60;;;;;;5013233;28;20309;-89
2021/06/03 14:14:07;;;;;;;2.75;2.55;;;26.10;23.10;;;;;;5013298;28;20199;-89
2021/06/03 14:16:45;;;;;;;4.03;2.50;;;26.20;23.50;;;;;;4994339;28;20722;-86
2021/06/03 14:19:17;;;;;;;4.10;2.38;;;26.10;25.10;;;;;;5021475;28;20219;-87
2021/06/03 14:21:52;;;;;;;2.95;2.60;;;26.10;24.50;;;;;;5010590;28;20733;-88
2021/06/03 14:24:24;;;;;;;3.15;2.28;;;25.90;23.80;;;;;;5014344;28;20679;-89
2021/06/03 14:26:53;;;;;;;2.88;2.67;;;26.10;22.90;;;;;;5013604;28;20211;-88
2021/06/03 14:29:19;;;;;;;3.05;2.67;;;26.30;24.10;;;;;;5002927;28;20606;-88
2021/06/03 14:31:49;;;;;;;5.30;3.00;;;26.30;24.30;;;;;;5021666;28;20206;-87
2021/06/03 14:34:32;;;;;;;2.92;2.45;;;26.40;23.90;;;;;;5030906;28;20223;-88
2021/06/03 14:37:01;;;;;;;2.90;2.40;;;26.30;24.90;;;;;;5019845;28;20658;-85
2021/06/03 14:39:41;;;;;;;3.22;2.65;;;26.50;23.00;;;;;;5020281;28;20702;-86
2021/06/03 14:42:36;;;;;;;3.80;2.45;;;26.50;23.40;;;;;;5019287;28;20200;-86
2021/06/03 14:45:18;;;;;;;3.50;2.53;;;26.40;23.90;;;;;;5031363;28;20219;-86
2021/06/03 14:47:46;;;;;;;4.55;2.97;;;26.40;23.90;;;;;;5020441;28;20203;-87
2021/06/03 14:50:14;;;;;;;3.20;2.60;;;26.50;24.00;;;;;;5009258;28;20239;-87
2021/06/03 14:52:45;;;;;;;5.93;3.00;;;26.60;23.70;;;;;;5014396;28;20380;-85
2021/06/03 14:55:13;;;;;;;3.17;2.70;;;26.40;22.70;;;;;;5022582;28;20224;-87
2021/06/03 14:57:47;;;;;;;3.15;2.75;;;26.40;23.50;;;;;;5025308;28;20207;-89
2021/06/03 15:00:16;;;;;;;3.00;2.70;;;26.50;23.00;;;;;;5019033;28;20227;-88
2021/06/03 15:02:42;;;;;;;4.35;2.75;;;26.50;22.90;;;;;;5024777;28;20774;-88
2021/06/03 15:05:11;;;;;;;3.85;2.88;;;26.50;23.10;;;;;;5015160;28;20286;-88
2021/06/03 15:07:41;;;;;;;3.42;2.47;;;26.50;23.20;;;;;;5022440;28;20208;-87
2021/06/03 15:10:10;;;;;;;2.80;2.60;;;26.50;24.10;;;;;;5010780;28;20219;-86
2021/06/03 15:12:36;;;;;;;3.58;3.00;;;26.40;23.20;;;;;;5014179;28;20286;-88
2021/06/03 15:15:08;;;;;;;4.00;2.90;;;26.40;22.90;;;;;;5011415;28;20222;-86
2021/06/03 15:17:35;;;;;;;3.17;2.78;;;26.30;22.90;;;;;;5022877;28;20639;-87
2021/06/03 15:20:03;;;;;;;3.30;2.97;;;26.20;23.60;;;;;;5009723;28;20235;-87
2021/06/03 15:22:30;;;;;;;4.40;2.55;;;26.20;23.30;;;;;;5019466;28;20196;-87
2021/06/03 15:24:56;;;;;;;3.47;3.13;;;26.10;24.10;;;;;;5007700;28;20243;-87
2021/06/03 15:27:23;;;;;;;2.95;2.60;;;26.00;24.10;;;;;;5017018;28;20196;-89
2021/06/03 15:29:50;;;;;;;5.13;2.85;;;25.90;24.10;;;;;;5019014;28;20235;-88
2021/06/03 15:32:17;;;;;;;3.40;2.75;;;26.00;23.90;;;;;;5021072;28;20206;-87
2021/06/03 15:34:45;;;;;;;4.20;2.75;;;26.00;23.20;;;;;;5020836;28;20215;-88
2021/06/03 15:37:12;;;;;;;2.75;2.55;;;25.90;23.60;;;;;;5022121;28;20294;-90
2021/06/03 15:39:39;;;;;;;7.05;2.70;;;25.60;23.60;;;;;;5020605;28;20238;-89